createdAt,value
2022-08-05T00:00:16.235Z,33.00
2022-08-05T00:02:50.935Z,32.90
2022-08-05T00:05:27.128Z,33.00
2022-08-05T00:08:30.861Z,32.90
2022-08-05T00:11:01.223Z,32.90
2022-08-05T00:13:38.841Z,32.90
2022-08-05T00:16:12.510Z,32.90
2022-08-05T00:18:44.247Z,32.90
2022-08-05T00:21:14.409Z,32.90
2022-08-05T00:23:45.901Z,32.90
2022-08-05T00:26:22.052Z,32.80
2022-08-05T00:28:49.761Z,32.80
2022-08-05T00:31:54.065Z,32.80
2022-08-05T00:34:54.817Z,32.80
2022-08-05T00:37:11.982Z,32.70
2022-08-05T00:39:57.406Z,32.70
2022-08-05T00:42:37.215Z,32.70
2022-08-05T00:45:08.535Z,32.60
2022-08-05T00:47:53.524Z,32.60
2022-08-05T00:50:25.791Z,32.60
2022-08-05T00:52:55.286Z,32.50
2022-08-05T00:55:23.316Z,32.50
2022-08-05T00:58:11.241Z,32.50
2022-08-05T01:00:39.651Z,32.50
2022-08-05T01:03:08.074Z,32.40
2022-08-05T01:05:35.474Z,32.40
2022-08-05T01:08:30.789Z,32.40
2022-08-05T01:11:00.927Z,32.40
2022-08-05T01:13:59.785Z,32.30
2022-08-05T01:16:35.597Z,32.30
2022-08-05T01:19:46.264Z,32.30
2022-08-05T01:22:31.844Z,32.30
2022-08-05T01:25:41.891Z,32.30
2022-08-05T01:28:33.008Z,32.20
2022-08-05T01:31:25.231Z,32.20
2022-08-05T01:34:09.366Z,32.20
2022-08-05T01:36:53.779Z,32.20
2022-08-05T01:39:45.883Z,32.10
2022-08-05T01:42:13.940Z,32.10
2022-08-05T01:44:45.717Z,32.20
2022-08-05T01:47:22.184Z,32.10
2022-08-05T01:50:01.923Z,32.10
2022-08-05T01:52:32.642Z,32.10
2022-08-05T01:55:04.430Z,32.10
2022-08-05T01:58:10.466Z,32.00
2022-08-05T02:00:30.676Z,32.00
2022-08-05T02:03:16.302Z,32.00
2022-08-05T02:05:59.657Z,31.90
2022-08-05T02:08:30.861Z,31.90
2022-08-05T02:11:12.728Z,31.90
2022-08-05T02:13:53.895Z,31.90
2022-08-05T02:16:36.848Z,31.90
2022-08-05T02:19:14.296Z,31.80
2022-08-05T02:21:49.251Z,31.90
2022-08-05T02:24:23.336Z,31.80
2022-08-05T02:26:58.238Z,31.80
2022-08-05T02:29:58.637Z,31.80
2022-08-05T02:32:29.168Z,31.80
2022-08-05T02:35:09.659Z,31.70
2022-08-05T02:37:47.828Z,31.70
2022-08-05T02:40:22.806Z,31.70
2022-08-05T02:42:54.034Z,31.70
2022-08-05T02:45:25.241Z,31.70
2022-08-05T02:48:12.129Z,31.70
2022-08-05T02:50:43.862Z,31.70
2022-08-05T02:53:16.120Z,31.60
2022-08-05T02:55:59.996Z,31.60
2022-08-05T02:58:30.074Z,31.60
2022-08-05T03:01:04.917Z,31.60
2022-08-05T03:03:33.739Z,31.50
2022-08-05T03:06:53.645Z,31.50
2022-08-05T03:08:52.140Z,31.50
2022-08-05T03:11:56.068Z,31.50
2022-08-05T03:14:08.415Z,31.50
2022-08-05T03:16:36.033Z,31.40
2022-08-05T03:19:17.098Z,31.40
2022-08-05T03:21:51.515Z,31.40
2022-08-05T03:24:23.666Z,31.40
2022-08-05T03:26:56.970Z,31.40
2022-08-05T03:29:46.018Z,31.40
2022-08-05T03:32:14.416Z,31.30
2022-08-05T03:34:50.581Z,31.30
2022-08-05T03:37:19.593Z,31.30
2022-08-05T03:39:59.062Z,31.20
2022-08-05T03:42:28.878Z,31.20
2022-08-05T03:44:57.065Z,31.20
2022-08-05T03:47:24.582Z,31.20
2022-08-05T03:49:52.556Z,31.20
2022-08-05T03:52:38.780Z,31.10
2022-08-05T03:56:05.885Z,31.10
2022-08-05T03:58:30.478Z,31.10
2022-08-05T04:01:00.138Z,31.10
2022-08-05T04:03:29.383Z,31.00
2022-08-05T04:05:59.240Z,31.00
2022-08-05T04:08:36.183Z,31.00
2022-08-05T04:11:08.419Z,31.00
2022-08-05T04:13:49.990Z,31.00
2022-08-05T04:16:25.539Z,31.00
2022-08-05T04:19:00.212Z,31.00
2022-08-05T04:22:08.931Z,31.00
2022-08-05T04:24:19.254Z,31.00
2022-08-05T04:26:50.219Z,31.00
2022-08-05T04:29:17.316Z,31.00
2022-08-05T04:31:44.323Z,31.00
2022-08-05T04:34:18.208Z,31.00
2022-08-05T04:36:50.135Z,31.00
2022-08-05T04:39:21.710Z,31.00
2022-08-05T04:41:50.933Z,31.00
2022-08-05T04:44:21.553Z,31.00
2022-08-05T04:46:58.586Z,31.00
2022-08-05T04:49:38.597Z,31.00
2022-08-05T04:52:14.114Z,31.00
2022-08-05T04:54:42.513Z,31.00
2022-08-05T04:57:09.530Z,31.00
2022-08-05T04:59:38.878Z,31.00
2022-08-05T05:02:36.378Z,31.00
2022-08-05T05:05:02.268Z,30.90
2022-08-05T05:07:35.473Z,30.90
2022-08-05T05:10:06.241Z,30.90
2022-08-05T05:12:33.592Z,30.90
2022-08-05T05:15:05.142Z,30.90
2022-08-05T05:17:55.631Z,30.90
2022-08-05T05:20:28.267Z,30.90
2022-08-05T05:22:57.653Z,30.80
2022-08-05T05:25:40.296Z,30.90
2022-08-05T05:28:09.278Z,30.90
2022-08-05T05:30:37.481Z,30.90
2022-08-05T05:33:16.031Z,30.90
2022-08-05T05:35:46.872Z,30.90
2022-08-05T05:38:22.635Z,30.90
2022-08-05T05:40:57.575Z,30.90
2022-08-05T05:43:54.463Z,30.90
2022-08-05T05:46:17.258Z,30.90
2022-08-05T05:48:48.352Z,30.90
2022-08-05T05:51:24.050Z,30.90
2022-08-05T05:53:57.567Z,30.90
2022-08-05T05:56:32.217Z,31.00
2022-08-05T05:59:03.096Z,31.00
2022-08-05T06:01:37.741Z,31.00
2022-08-05T06:04:06.410Z,31.00
2022-08-05T06:06:34.975Z,31.00
2022-08-05T06:09:06.000Z,31.10
2022-08-05T06:11:35.168Z,31.00
2022-08-05T06:14:06.710Z,31.10
2022-08-05T06:16:37.324Z,31.00
2022-08-05T06:19:07.345Z,31.00
2022-08-05T06:21:38.336Z,31.10
2022-08-05T06:24:12.071Z,31.10
2022-08-05T06:26:51.883Z,31.10
2022-08-05T06:29:46.866Z,31.10
2022-08-05T06:32:21.032Z,31.20
2022-08-05T06:34:56.355Z,31.20
2022-08-05T06:37:39.384Z,31.20
2022-08-05T06:40:13.885Z,31.20
2022-08-05T06:42:45.419Z,31.30
2022-08-05T06:45:21.247Z,31.30
2022-08-05T06:48:36.216Z,31.30
2022-08-05T06:50:47.335Z,31.30
2022-08-05T06:53:22.662Z,31.30
2022-08-05T06:55:59.702Z,31.30
2022-08-05T06:58:35.471Z,31.30
2022-08-05T07:01:05.961Z,31.40
2022-08-05T07:03:33.974Z,31.40
2022-08-05T07:06:06.212Z,31.40
2022-08-05T07:08:47.968Z,31.40
2022-08-05T07:11:22.583Z,31.40
2022-08-05T07:14:15.443Z,31.50
2022-08-05T07:17:56.321Z,31.50
2022-08-05T07:22:30.092Z,31.50
2022-08-05T07:24:59.100Z,31.50
2022-08-05T07:27:27.596Z,31.50
2022-08-05T07:30:22.172Z,31.60
2022-08-05T07:32:55.449Z,31.60
2022-08-05T07:36:04.526Z,31.60
2022-08-05T07:38:26.497Z,31.60
2022-08-05T07:41:04.529Z,31.60
2022-08-05T07:43:46.354Z,31.70
2022-08-05T07:46:24.315Z,31.70
2022-08-05T07:49:01.711Z,31.70
2022-08-05T07:51:41.130Z,31.70
2022-08-05T07:54:18.733Z,31.80
2022-08-05T07:57:01.414Z,31.80
2022-08-05T07:59:40.492Z,31.80
2022-08-05T08:02:15.958Z,31.80
2022-08-05T08:04:49.213Z,31.80
2022-08-05T08:07:21.962Z,31.80
2022-08-05T08:09:52.511Z,31.90
2022-08-05T08:12:37.143Z,31.80
2022-08-05T08:15:15.818Z,31.90
2022-08-05T08:17:52.748Z,31.90
2022-08-05T08:21:00.312Z,31.90
2022-08-05T08:23:59.994Z,32.00
2022-08-05T08:26:02.135Z,32.00
2022-08-05T08:28:36.393Z,32.00
2022-08-05T08:31:06.469Z,32.00
2022-08-05T08:33:37.471Z,32.00
2022-08-05T08:36:39.212Z,32.10
2022-08-05T08:38:55.716Z,32.00
2022-08-05T08:41:26.117Z,32.10
2022-08-05T08:45:25.161Z,32.10
2022-08-05T08:47:04.109Z,32.10
2022-08-05T08:50:14.548Z,32.10
2022-08-05T08:52:42.315Z,32.20
2022-08-05T08:55:19.461Z,32.20
2022-08-05T08:58:06.300Z,32.20
2022-08-05T09:00:36.086Z,32.30
2022-08-05T09:03:06.748Z,32.20
2022-08-05T09:05:38.334Z,32.30
2022-08-05T09:08:26.573Z,32.30
2022-08-05T09:10:54.757Z,32.30
2022-08-05T09:13:23.581Z,32.30
2022-08-05T09:15:51.735Z,32.30
2022-08-05T09:18:18.914Z,32.30
2022-08-05T09:20:47.156Z,32.40
2022-08-05T09:23:21.926Z,32.40
2022-08-05T09:26:01.137Z,32.40
2022-08-05T09:28:33.559Z,32.40
2022-08-05T09:31:22.321Z,32.40
2022-08-05T09:33:58.405Z,32.40
2022-08-05T09:36:54.727Z,32.40
2022-08-05T09:39:39.157Z,32.40
2022-08-05T09:42:17.636Z,32.50
2022-08-05T09:44:56.359Z,32.50
2022-08-05T09:47:36.464Z,32.60
2022-08-05T09:50:18.229Z,32.60
2022-08-05T09:53:01.592Z,32.60
2022-08-05T09:55:56.675Z,32.60
2022-08-05T09:58:24.824Z,32.60
2022-08-05T10:01:15.405Z,32.60
2022-08-05T10:03:59.797Z,32.70
2022-08-05T10:06:27.982Z,32.70
2022-08-05T10:08:56.602Z,32.70
2022-08-05T10:11:23.907Z,32.70
2022-08-05T10:13:58.647Z,32.80
2022-08-05T10:16:37.681Z,32.80
2022-08-05T10:19:11.830Z,32.80
2022-08-05T10:21:40.209Z,32.80
2022-08-05T10:24:13.258Z,32.90
2022-08-05T10:26:49.019Z,32.90
2022-08-05T10:29:24.140Z,33.00
2022-08-05T10:32:53.998Z,33.00
2022-08-05T10:35:00.927Z,33.00
2022-08-05T10:37:37.144Z,33.00
2022-08-05T10:40:30.379Z,33.00
2022-08-05T10:43:06.717Z,33.10
2022-08-05T10:45:38.416Z,33.10
2022-08-05T10:48:52.487Z,33.10
2022-08-05T10:51:28.993Z,33.10
2022-08-05T10:54:05.960Z,33.10
2022-08-05T10:56:52.818Z,33.10
2022-08-05T11:00:03.354Z,33.20
2022-08-05T11:02:34.714Z,33.30
2022-08-05T11:05:10.368Z,33.30
2022-08-05T11:08:01.214Z,33.30
2022-08-05T11:10:33.366Z,33.30
2022-08-05T11:13:01.238Z,33.30
2022-08-05T11:15:59.074Z,33.30
2022-08-05T11:18:32.200Z,33.30
2022-08-05T11:21:02.047Z,33.30
2022-08-05T11:24:04.503Z,33.30
2022-08-05T11:26:32.614Z,33.30
2022-08-05T11:29:13.969Z,33.30
2022-08-05T11:31:56.766Z,33.30
2022-08-05T11:34:47.546Z,33.40
2022-08-05T11:38:26.165Z,33.40
2022-08-05T11:41:34.445Z,33.40
2022-08-05T11:44:05.846Z,33.40
2022-08-05T11:47:09.218Z,33.40
2022-08-05T11:49:27.990Z,33.50
2022-08-05T11:51:55.239Z,33.50
2022-08-05T11:54:33.737Z,33.50
2022-08-05T11:57:08.310Z,33.50
2022-08-05T11:59:51.308Z,33.50
2022-08-05T12:02:29.740Z,33.50
2022-08-05T12:05:06.793Z,33.60
2022-08-05T12:08:09.186Z,33.60
2022-08-05T12:10:42.829Z,33.60
2022-08-05T12:13:47.430Z,33.60
2022-08-05T12:16:15.049Z,33.70
2022-08-05T12:18:49.578Z,33.70
2022-08-05T12:21:29.794Z,33.70
2022-08-05T12:24:07.290Z,33.80
2022-08-05T12:26:39.001Z,33.80
2022-08-05T12:29:09.786Z,33.80
2022-08-05T12:31:53.731Z,33.90
2022-08-05T12:34:28.387Z,33.90
2022-08-05T12:37:03.282Z,33.90
2022-08-05T12:39:37.135Z,33.90
2022-08-05T12:42:14.397Z,34.00
2022-08-05T12:44:44.605Z,34.00
2022-08-05T12:47:13.266Z,34.00
2022-08-05T12:50:03.697Z,34.00
2022-08-05T12:52:41.748Z,34.10
2022-08-05T12:55:22.019Z,34.20
2022-08-05T12:58:48.313Z,34.20
2022-08-05T13:02:03.099Z,34.20
2022-08-05T13:03:41.776Z,34.30
2022-08-05T13:06:13.509Z,34.30
2022-08-05T13:08:40.721Z,34.40
2022-08-05T13:11:59.776Z,34.40
2022-08-05T13:14:25.104Z,34.40
2022-08-05T13:17:41.833Z,34.50
2022-08-05T13:20:11.711Z,34.50
2022-08-05T13:22:40.752Z,34.50
2022-08-05T13:25:18.709Z,34.50
2022-08-05T13:27:58.901Z,34.50
2022-08-05T13:30:34.712Z,34.60
2022-08-05T13:33:04.114Z,34.60
2022-08-05T13:35:47.052Z,34.60
2022-08-05T13:38:30.927Z,34.60
2022-08-05T13:41:03.938Z,34.70
2022-08-05T13:43:45.859Z,34.70
2022-08-05T13:46:35.952Z,34.80
2022-08-05T13:49:09.825Z,34.80
2022-08-05T13:51:42.101Z,34.90
2022-08-05T13:54:16.133Z,34.90
2022-08-05T13:56:45.318Z,34.90
2022-08-05T13:59:24.794Z,35.00
2022-08-05T14:01:59.478Z,35.00
2022-08-05T14:04:52.003Z,35.10
2022-08-05T14:08:00.783Z,35.10
2022-08-05T14:10:28.521Z,35.10
2022-08-05T14:12:57.150Z,35.10
2022-08-05T14:16:08.114Z,35.10
2022-08-05T14:18:15.046Z,35.20
2022-08-05T14:20:48.926Z,35.20
2022-08-05T14:23:24.663Z,35.20
2022-08-05T14:25:58.551Z,35.20
2022-08-05T14:28:30.785Z,35.30
2022-08-05T14:30:59.540Z,35.30
2022-08-05T14:33:27.920Z,35.30
2022-08-05T14:36:21.292Z,35.40
2022-08-05T14:38:49.150Z,35.40
2022-08-05T14:41:17.789Z,35.50
2022-08-05T14:43:59.057Z,35.50
2022-08-05T14:46:31.689Z,35.60
2022-08-05T14:49:07.410Z,35.60
2022-08-05T14:51:42.878Z,35.60
2022-08-05T14:54:28.716Z,35.60
2022-08-05T14:56:58.423Z,35.60
2022-08-05T14:59:29.687Z,35.70
2022-08-05T15:02:03.373Z,35.70
2022-08-05T15:04:40.737Z,35.70
2022-08-05T15:07:10.461Z,35.80
2022-08-05T15:09:57.570Z,35.80
2022-08-05T15:12:36.876Z,35.80
2022-08-05T15:15:15.886Z,35.80
2022-08-05T15:17:45.602Z,35.90
2022-08-05T15:20:18.713Z,35.90
2022-08-05T15:22:54.017Z,35.90
2022-08-05T15:25:51.425Z,35.90
2022-08-05T15:28:13.322Z,36.00
2022-08-05T15:30:43.668Z,36.00
2022-08-05T15:33:12.900Z,36.00
2022-08-05T15:35:59.909Z,36.00
2022-08-05T15:38:33.979Z,36.00
2022-08-05T15:41:22.624Z,36.10
2022-08-05T15:43:50.949Z,36.00
2022-08-05T15:46:20.758Z,36.10
2022-08-05T15:48:52.740Z,36.10
2022-08-05T15:52:09.968Z,36.10
2022-08-05T15:54:17.082Z,36.20
2022-08-05T15:56:44.177Z,36.10
2022-08-05T15:59:22.042Z,36.20
2022-08-05T16:01:52.384Z,36.20
2022-08-05T16:04:25.598Z,36.20
2022-08-05T16:06:56.077Z,36.20
2022-08-05T16:09:24.781Z,36.30
2022-08-05T16:11:53.776Z,36.30
2022-08-05T16:14:24.692Z,36.30
2022-08-05T16:16:52.132Z,36.30
2022-08-05T16:20:02.781Z,36.30
2022-08-05T16:22:10.838Z,36.20
2022-08-05T16:24:51.218Z,36.10
2022-08-05T16:27:19.452Z,36.10
2022-08-05T16:30:08.329Z,36.10
2022-08-05T16:32:50.511Z,36.00
2022-08-05T16:35:17.863Z,35.90
2022-08-05T16:38:15.575Z,35.90
2022-08-05T16:40:32.608Z,35.90
2022-08-05T16:43:00.084Z,35.80
2022-08-05T16:46:04.818Z,35.80
2022-08-05T16:48:25.826Z,35.80
2022-08-05T16:51:00.140Z,35.70
2022-08-05T16:53:32.553Z,35.70
2022-08-05T16:56:14.364Z,35.70
2022-08-05T16:58:41.433Z,35.70
2022-08-05T17:01:10.420Z,35.60
2022-08-05T17:03:40.716Z,35.60
2022-08-05T17:06:08.402Z,35.60
2022-08-05T17:08:52.720Z,35.50
2022-08-05T17:11:25.378Z,35.50
2022-08-05T17:14:00.264Z,35.50
2022-08-05T17:16:36.615Z,35.50
2022-08-05T17:19:07.517Z,35.40
2022-08-05T17:21:37.741Z,35.40
2022-08-05T17:24:19.534Z,35.30
2022-08-05T17:26:58.832Z,35.40
2022-08-05T17:29:40.075Z,35.30
2022-08-05T17:32:11.243Z,35.30
2022-08-05T17:34:39.451Z,35.20
2022-08-05T17:37:29.401Z,35.20
2022-08-05T17:39:55.851Z,35.30
2022-08-05T17:42:28.910Z,35.20
2022-08-05T17:44:57.354Z,35.20
2022-08-05T17:47:24.515Z,35.20
2022-08-05T17:50:03.759Z,35.20
2022-08-05T17:52:52.827Z,35.10
2022-08-05T17:55:22.836Z,35.10
2022-08-05T17:58:02.420Z,35.10
2022-08-05T18:00:29.903Z,35.10
2022-08-05T18:02:57.174Z,35.00
2022-08-05T18:05:27.936Z,35.00
2022-08-05T18:07:56.743Z,34.90
2022-08-05T18:10:24.533Z,34.90
2022-08-05T18:12:52.827Z,34.90
2022-08-05T18:15:20.384Z,34.80
2022-08-05T18:17:59.229Z,34.90
2022-08-05T18:20:31.573Z,34.90
2022-08-05T18:23:11.919Z,34.90
2022-08-05T18:25:45.222Z,34.90
2022-08-05T18:28:16.163Z,34.90
2022-08-05T18:30:45.418Z,34.80
2022-08-05T18:33:22.931Z,34.80
2022-08-05T18:36:03.363Z,34.70
2022-08-05T18:38:35.937Z,34.70
2022-08-05T18:41:55.276Z,34.60
2022-08-05T18:43:52.464Z,34.60
2022-08-05T18:46:20.656Z,34.60
2022-08-05T18:48:52.650Z,34.60
2022-08-05T18:52:06.917Z,34.50
2022-08-05T18:54:31.218Z,34.50
2022-08-05T18:57:02.158Z,34.50
2022-08-05T18:59:43.707Z,34.40
2022-08-05T19:02:27.963Z,34.40
2022-08-05T19:05:02.042Z,34.40
2022-08-05T19:07:47.967Z,34.30
2022-08-05T19:10:16.788Z,34.30
2022-08-05T19:12:46.066Z,34.20
2022-08-05T19:15:45.037Z,34.20
2022-08-05T19:18:09.655Z,34.20
2022-08-05T19:20:41.681Z,34.20
2022-08-05T19:24:04.049Z,34.10
2022-08-05T19:26:01.982Z,34.10
2022-08-05T19:28:34.729Z,34.10
2022-08-05T19:31:05.738Z,34.10
2022-08-05T19:33:36.870Z,34.10
2022-08-05T19:36:08.862Z,34.10
2022-08-05T19:38:37.020Z,34.10
2022-08-05T19:41:06.699Z,34.00
2022-08-05T19:44:05.346Z,34.00
2022-08-05T19:46:29.483Z,34.00
2022-08-05T19:49:01.146Z,33.90
2022-08-05T19:52:09.305Z,33.90
2022-08-05T19:54:31.246Z,33.80
2022-08-05T19:57:09.207Z,33.80
2022-08-05T19:59:55.339Z,33.80
2022-08-05T20:02:27.988Z,33.70
2022-08-05T20:04:58.484Z,33.70
2022-08-05T20:07:46.772Z,33.60
2022-08-05T20:10:19.142Z,33.60
2022-08-05T20:12:49.256Z,33.60
2022-08-05T20:15:48.707Z,33.60
2022-08-05T20:18:10.017Z,33.50
2022-08-05T20:20:56.022Z,33.50
2022-08-05T20:23:39.929Z,33.50
2022-08-05T20:26:17.428Z,33.50
2022-08-05T20:28:48.013Z,33.50
2022-08-05T20:31:16.396Z,33.40
2022-08-05T20:33:45.100Z,33.40
2022-08-05T20:36:14.166Z,33.40
2022-08-05T20:38:53.421Z,33.40
2022-08-05T20:41:27.033Z,33.40
2022-08-05T20:43:58.712Z,33.40
2022-08-05T20:46:27.737Z,33.40
2022-08-05T20:48:54.845Z,33.30
2022-08-05T20:51:21.942Z,33.40
2022-08-05T20:53:56.809Z,33.30
2022-08-05T20:56:31.885Z,33.30
2022-08-05T20:59:11.298Z,33.30
2022-08-05T21:01:46.619Z,33.30
2022-08-05T21:04:14.237Z,33.30
2022-08-05T21:06:45.179Z,33.30
2022-08-05T21:09:14.951Z,33.20
2022-08-05T21:12:10.623Z,33.20
2022-08-05T21:14:35.294Z,33.20
2022-08-05T21:17:06.166Z,33.10
2022-08-05T21:19:46.807Z,33.10
2022-08-05T21:22:21.886Z,33.10
2022-08-05T21:24:52.648Z,33.00
2022-08-05T21:27:25.317Z,33.00
2022-08-05T21:29:58.226Z,33.00
2022-08-05T21:32:29.186Z,33.00
2022-08-05T21:35:08.497Z,33.00
2022-08-05T21:37:53.065Z,33.00
2022-08-05T21:40:24.654Z,32.90
2022-08-05T21:42:53.683Z,32.80
2022-08-05T21:45:25.027Z,32.80
2022-08-05T21:48:09.290Z,32.70
2022-08-05T21:50:36.569Z,32.70
2022-08-05T21:53:16.437Z,32.70
2022-08-05T21:56:04.427Z,32.70
2022-08-05T21:58:34.708Z,32.70
2022-08-05T22:01:05.005Z,32.60
2022-08-05T22:03:52.140Z,32.60
2022-08-05T22:06:22.880Z,32.60
2022-08-05T22:08:52.553Z,32.50
2022-08-05T22:11:34.715Z,32.50
2022-08-05T22:14:19.954Z,32.60
2022-08-05T22:16:56.013Z,32.50
2022-08-05T22:20:00.502Z,32.50
2022-08-05T22:22:14.422Z,32.50
2022-08-05T22:25:01.157Z,32.50
2022-08-05T22:28:10.911Z,32.50
2022-08-05T22:30:34.979Z,32.50
2022-08-05T22:33:03.723Z,32.60
2022-08-05T22:35:47.940Z,32.60
2022-08-05T22:38:16.456Z,32.60
2022-08-05T22:40:49.452Z,32.50
2022-08-05T22:43:36.567Z,32.50
2022-08-05T22:46:11.887Z,32.50
2022-08-05T22:48:41.040Z,32.50
2022-08-05T22:51:08.411Z,32.50
2022-08-05T22:53:49.713Z,32.50
2022-08-05T22:56:17.997Z,32.50
2022-08-05T22:59:04.127Z,32.50
2022-08-05T23:02:04.529Z,32.40
2022-08-05T23:04:33.865Z,32.50
2022-08-05T23:07:01.063Z,32.50
2022-08-05T23:09:57.470Z,32.50
2022-08-05T23:12:17.816Z,32.40
2022-08-05T23:14:45.254Z,32.50
2022-08-05T23:17:34.835Z,32.50
2022-08-05T23:20:15.525Z,32.40
2022-08-05T23:22:47.742Z,32.40
2022-08-05T23:25:54.679Z,32.40
2022-08-05T23:28:06.931Z,32.40
2022-08-05T23:30:40.614Z,32.40
2022-08-05T23:33:22.345Z,32.30
2022-08-05T23:35:56.177Z,32.20
2022-08-05T23:38:26.073Z,32.10
2022-08-05T23:40:54.049Z,32.10
2022-08-05T23:43:24.951Z,32.10
2022-08-05T23:46:21.162Z,32.10
2022-08-05T23:48:59.710Z,32.10
2022-08-05T23:51:54.065Z,32.00
2022-08-05T23:54:25.517Z,32.00
2022-08-05T23:56:54.473Z,32.00
2022-08-05T23:59:27.846Z,31.90
